UAE1KM OMDB-EGCC
Flight info
| Callsign | UAE1KM |
|---|---|
| Flight time | N/A |
| Altitude | 30000 |
| Route | ANVIX R401 GIDIS G783 RIGIL M628 PEKEM DCT MEDPO/N0508F320 DCT ITRUX Y511 PMA Z712 WEJ L677 CVO L617 TANSA/N0490F340 UL613 KOR DCT DIMIS DCT VAKSU DCT SPL DCT ZDA DCT PEVAL DCT LAMPO DCT GUNGO DCT SAFFA DCT ELMUR DCT RIPUS L613 HOC DCT LUL DCT RLP DCT ROTSI DCT KOTUN DCT AMAXA DCT VESAN DCT RATUK DCT SOVAT L613 SANDY UN57 WELIN T420 ELVOS |
| Aircraft | B77W/H-SDE1E2E3FGHIJ2J3J4J5M1RWXY/LB1D1 |
Departure
| Time | N/A |
|---|---|
| Airport | Dubai International Airport (OMDB) |
Arrival
| Time | 2026-05-07 12:07 |
|---|---|
| Airport | Manchester Airport (EGCC) |
| Time | Latitude | Longitude | Altitude | Speed | Heading |
|---|---|---|---|---|---|
| 2026-05-07 10:28 | 46.28181 | 11.34444 | 36017 ft | 477 kts | 299° |
| 2026-05-07 10:28 | 46.30732 | 11.29232 | 36016 ft | 476 kts | 299° |
| 2026-05-07 10:29 | 46.33910 | 11.22723 | 36002 ft | 476 kts | 299° |
| 2026-05-07 10:29 | 46.37722 | 11.14901 | 35989 ft | 475 kts | 299° |
| 2026-05-07 10:30 | 46.43455 | 11.03103 | 36007 ft | 475 kts | 300° |
| 2026-05-07 10:30 | 46.47264 | 10.95274 | 35995 ft | 475 kts | 300° |
| 2026-05-07 10:31 | 46.51080 | 10.87438 | 36011 ft | 475 kts | 300° |
| 2026-05-07 10:31 | 46.54888 | 10.79575 | 36015 ft | 476 kts | 300° |
| 2026-05-07 10:32 | 46.58695 | 10.71692 | 36014 ft | 477 kts | 300° |
| 2026-05-07 10:32 | 46.62501 | 10.63790 | 36015 ft | 478 kts | 300° |
| 2026-05-07 10:33 | 46.66321 | 10.55833 | 36001 ft | 480 kts | 300° |
| 2026-05-07 10:33 | 46.70137 | 10.47863 | 35999 ft | 480 kts | 300° |
| 2026-05-07 10:34 | 46.73761 | 10.39831 | 36000 ft | 473 kts | 294° |
| 2026-05-07 10:34 | 46.76458 | 10.31171 | 36007 ft | 467 kts | 288° |
| 2026-05-07 10:35 | 46.78927 | 10.22398 | 36007 ft | 468 kts | 288° |
| 2026-05-07 10:35 | 46.81409 | 10.13627 | 36010 ft | 468 kts | 288° |
| 2026-05-07 10:36 | 46.83913 | 10.04840 | 36009 ft | 469 kts | 288° |
| 2026-05-07 10:36 | 46.86417 | 9.96067 | 36017 ft | 468 kts | 288° |
| 2026-05-07 10:37 | 46.88918 | 9.87257 | 36016 ft | 470 kts | 289° |
| 2026-05-07 10:37 | 46.91434 | 9.78358 | 36022 ft | 471 kts | 288° |
| 2026-05-07 10:38 | 46.93931 | 9.69494 | 36028 ft | 472 kts | 288° |
| 2026-05-07 10:38 | 46.96425 | 9.60608 | 36032 ft | 471 kts | 288° |
| 2026-05-07 10:39 | 46.98907 | 9.51736 | 36023 ft | 471 kts | 289° |
| 2026-05-07 10:39 | 47.01366 | 9.42909 | 36028 ft | 471 kts | 288° |
| 2026-05-07 10:40 | 47.03847 | 9.33973 | 36029 ft | 470 kts | 289° |
| 2026-05-07 10:40 | 47.06301 | 9.25104 | 36050 ft | 469 kts | 289° |
| 2026-05-07 10:41 | 47.08746 | 9.16233 | 36036 ft | 469 kts | 289° |
| 2026-05-07 10:41 | 47.11184 | 9.07346 | 36049 ft | 470 kts | 289° |
| 2026-05-07 10:42 | 47.13621 | 8.98430 | 36043 ft | 471 kts | 289° |
| 2026-05-07 10:42 | 47.16055 | 8.89494 | 36045 ft | 471 kts | 288° |
| 2026-05-07 10:43 | 47.18343 | 8.80542 | 36041 ft | 471 kts | 287° |
| 2026-05-07 10:43 | 47.20601 | 8.71504 | 36048 ft | 471 kts | 287° |
| 2026-05-07 10:44 | 47.22869 | 8.62479 | 36047 ft | 471 kts | 288° |
| 2026-05-07 10:44 | 47.25140 | 8.53445 | 36051 ft | 470 kts | 288° |
| 2026-05-07 10:45 | 47.27424 | 8.44342 | 36037 ft | 471 kts | 288° |
| 2026-05-07 10:45 | 47.29669 | 8.35426 | 36054 ft | 471 kts | 288° |
| 2026-05-07 10:46 | 47.31936 | 8.26369 | 36048 ft | 472 kts | 288° |
| 2026-05-07 10:46 | 47.34200 | 8.17287 | 36048 ft | 472 kts | 288° |
| 2026-05-07 10:47 | 47.36459 | 8.08195 | 36052 ft | 473 kts | 288° |
| 2026-05-07 10:47 | 47.38717 | 7.99076 | 36034 ft | 473 kts | 288° |
| 2026-05-07 10:48 | 47.40964 | 7.89957 | 36045 ft | 473 kts | 288° |
| 2026-05-07 10:48 | 47.43203 | 7.80827 | 36055 ft | 473 kts | 288° |
| 2026-05-07 10:49 | 47.45438 | 7.71684 | 36054 ft | 473 kts | 288° |
| 2026-05-07 10:49 | 47.47452 | 7.62455 | 36053 ft | 471 kts | 283° |
| 2026-05-07 10:50 | 47.49005 | 7.53041 | 36045 ft | 471 kts | 282° |
| 2026-05-07 10:50 | 47.50533 | 7.43620 | 36050 ft | 471 kts | 282° |
| 2026-05-07 10:51 | 47.52045 | 7.34393 | 36051 ft | 471 kts | 282° |
| 2026-05-07 10:51 | 47.53592 | 7.24991 | 36054 ft | 470 kts | 282° |
| 2026-05-07 10:52 | 47.55131 | 7.15584 | 36039 ft | 470 kts | 282° |
| 2026-05-07 10:52 | 47.56660 | 7.06182 | 36053 ft | 470 kts | 282° |
| 2026-05-07 10:53 | 47.58181 | 6.96781 | 36045 ft | 470 kts | 282° |
| 2026-05-07 10:53 | 47.59694 | 6.87375 | 36041 ft | 470 kts | 282° |
| 2026-05-07 10:54 | 47.61200 | 6.77956 | 36051 ft | 470 kts | 282° |
| 2026-05-07 10:54 | 47.62701 | 6.68524 | 36036 ft | 470 kts | 282° |
| 2026-05-07 10:55 | 47.64191 | 6.59099 | 36054 ft | 471 kts | 282° |
| 2026-05-07 10:55 | 47.65678 | 6.49635 | 36042 ft | 472 kts | 282° |
| 2026-05-07 10:56 | 47.67162 | 6.40151 | 36044 ft | 472 kts | 282° |
| 2026-05-07 10:56 | 47.68633 | 6.30711 | 36047 ft | 473 kts | 282° |
| 2026-05-07 10:57 | 47.70493 | 6.21344 | 36047 ft | 474 kts | 287° |
| 2026-05-07 10:57 | 47.72511 | 6.12021 | 36047 ft | 474 kts | 287° |
| 2026-05-07 10:58 | 47.74512 | 6.02681 | 36045 ft | 475 kts | 286° |
| 2026-05-07 10:58 | 47.76487 | 5.93314 | 36041 ft | 475 kts | 286° |
| 2026-05-07 10:59 | 47.78129 | 5.85466 | 36056 ft | 474 kts | 286° |
| 2026-05-07 10:59 | 47.80398 | 5.74582 | 36044 ft | 474 kts | 286° |
| 2026-05-07 11:00 | 47.82343 | 5.65206 | 36041 ft | 474 kts | 286° |
| 2026-05-07 11:00 | 47.83952 | 5.57415 | 36046 ft | 474 kts | 286° |
| 2026-05-07 11:01 | 47.86202 | 5.46470 | 36042 ft | 473 kts | 286° |
| 2026-05-07 11:01 | 47.88118 | 5.37107 | 36045 ft | 472 kts | 286° |
| 2026-05-07 11:02 | 47.90283 | 5.27885 | 36039 ft | 473 kts | 295° |
| 2026-05-07 11:02 | 47.93757 | 5.19555 | 36057 ft | 475 kts | 307° |
| 2026-05-07 11:03 | 47.98169 | 5.12229 | 36062 ft | 475 kts | 311° |
| 2026-05-07 11:03 | 48.02657 | 5.05001 | 36056 ft | 475 kts | 311° |
| 2026-05-07 11:04 | 48.06365 | 4.98939 | 36052 ft | 475 kts | 311° |
| 2026-05-07 11:04 | 48.11540 | 4.90367 | 36054 ft | 475 kts | 311° |
| 2026-05-07 11:05 | 48.15963 | 4.83009 | 36058 ft | 475 kts | 311° |
| 2026-05-07 11:05 | 48.20385 | 4.75637 | 36065 ft | 476 kts | 311° |
| 2026-05-07 11:06 | 48.24805 | 4.68253 | 36079 ft | 476 kts | 310° |
| 2026-05-07 11:06 | 48.29218 | 4.60856 | 36076 ft | 475 kts | 310° |
| 2026-05-07 11:07 | 48.33617 | 4.53440 | 36075 ft | 475 kts | 310° |
| 2026-05-07 11:07 | 48.38000 | 4.46019 | 36074 ft | 475 kts | 310° |
| 2026-05-07 11:08 | 48.42385 | 4.38579 | 36072 ft | 475 kts | 310° |
| 2026-05-07 11:08 | 48.46762 | 4.31138 | 36075 ft | 475 kts | 310° |
| 2026-05-07 11:09 | 48.51130 | 4.23686 | 36073 ft | 474 kts | 310° |
| 2026-05-07 11:09 | 48.55493 | 4.16226 | 36075 ft | 474 kts | 310° |
| 2026-05-07 11:10 | 48.59849 | 4.08752 | 36073 ft | 474 kts | 310° |
| 2026-05-07 11:10 | 48.63468 | 4.02527 | 36072 ft | 474 kts | 310° |
| 2026-05-07 11:11 | 48.67820 | 3.95024 | 36079 ft | 474 kts | 310° |
| 2026-05-07 11:11 | 48.72277 | 3.87660 | 36076 ft | 475 kts | 315° |
| 2026-05-07 11:12 | 48.77438 | 3.81426 | 36081 ft | 475 kts | 323° |
| 2026-05-07 11:12 | 48.82835 | 3.75629 | 36073 ft | 475 kts | 323° |
| 2026-05-07 11:13 | 48.88220 | 3.69815 | 36071 ft | 475 kts | 323° |
| 2026-05-07 11:13 | 48.93585 | 3.63946 | 36062 ft | 475 kts | 323° |
| 2026-05-07 11:14 | 48.98947 | 3.58043 | 36060 ft | 476 kts | 323° |
| 2026-05-07 11:14 | 49.04309 | 3.52125 | 36067 ft | 477 kts | 323° |
| 2026-05-07 11:15 | 49.09676 | 3.46184 | 36063 ft | 477 kts | 323° |
| 2026-05-07 11:15 | 49.15041 | 3.40232 | 36064 ft | 476 kts | 323° |
| 2026-05-07 11:16 | 49.20404 | 3.34266 | 36067 ft | 477 kts | 323° |
| 2026-05-07 11:16 | 49.25763 | 3.28290 | 36065 ft | 476 kts | 323° |
| 2026-05-07 11:17 | 49.31111 | 3.22306 | 36063 ft | 476 kts | 322° |
| 2026-05-07 11:17 | 49.36455 | 3.16310 | 36061 ft | 476 kts | 322° |
| 2026-05-07 11:18 | 49.41796 | 3.10302 | 36063 ft | 476 kts | 322° |
| 2026-05-07 11:18 | 49.47051 | 3.04372 | 36070 ft | 475 kts | 322° |
| 2026-05-07 11:19 | 49.52383 | 2.98342 | 36075 ft | 476 kts | 322° |
| 2026-05-07 11:19 | 49.57714 | 2.92295 | 36076 ft | 476 kts | 322° |
| 2026-05-07 11:20 | 49.63051 | 2.86223 | 36074 ft | 477 kts | 322° |
| 2026-05-07 11:20 | 49.68389 | 2.80136 | 36072 ft | 477 kts | 322° |
| 2026-05-07 11:21 | 49.73727 | 2.74030 | 36074 ft | 477 kts | 322° |
| 2026-05-07 11:21 | 49.79063 | 2.67929 | 36075 ft | 477 kts | 323° |
| 2026-05-07 11:22 | 49.84458 | 2.61936 | 36075 ft | 477 kts | 323° |
| 2026-05-07 11:22 | 49.89868 | 2.55959 | 36072 ft | 477 kts | 323° |
| 2026-05-07 11:23 | 49.95269 | 2.49953 | 36078 ft | 478 kts | 323° |
| 2026-05-07 11:23 | 50.00664 | 2.43923 | 36073 ft | 478 kts | 323° |
| 2026-05-07 11:24 | 50.06061 | 2.37867 | 36072 ft | 478 kts | 323° |
| 2026-05-07 11:24 | 50.11454 | 2.31801 | 36072 ft | 478 kts | 323° |
| 2026-05-07 11:25 | 50.16845 | 2.25721 | 36073 ft | 478 kts | 323° |
| 2026-05-07 11:25 | 50.22203 | 2.19663 | 36076 ft | 479 kts | 323° |
| 2026-05-07 11:26 | 50.27628 | 2.13505 | 36072 ft | 479 kts | 322° |
| 2026-05-07 11:26 | 50.33015 | 2.07378 | 36075 ft | 479 kts | 322° |
| 2026-05-07 11:27 | 50.38349 | 2.01136 | 36069 ft | 478 kts | 319° |
| 2026-05-07 11:27 | 50.43341 | 1.94370 | 36077 ft | 477 kts | 317° |
| 2026-05-07 11:28 | 50.48325 | 1.87481 | 36074 ft | 477 kts | 317° |
| 2026-05-07 11:28 | 50.53323 | 1.80616 | 36072 ft | 477 kts | 317° |
| 2026-05-07 11:29 | 50.58327 | 1.73752 | 36074 ft | 477 kts | 317° |
| 2026-05-07 11:29 | 50.63332 | 1.66871 | 36074 ft | 478 kts | 317° |
| 2026-05-07 11:30 | 50.68330 | 1.59973 | 36073 ft | 478 kts | 317° |
| 2026-05-07 11:30 | 50.73329 | 1.53049 | 36076 ft | 478 kts | 317° |
| 2026-05-07 11:31 | 50.78325 | 1.46113 | 36085 ft | 478 kts | 317° |
| 2026-05-07 11:31 | 50.83320 | 1.39169 | 36083 ft | 479 kts | 317° |
| 2026-05-07 11:32 | 50.90821 | 1.28705 | 36089 ft | 479 kts | 317° |
| 2026-05-07 11:33 | 50.95814 | 1.21704 | 36094 ft | 479 kts | 317° |
| 2026-05-07 11:33 | 51.00808 | 1.14684 | 36094 ft | 480 kts | 317° |
| 2026-05-07 11:34 | 51.05798 | 1.07656 | 36104 ft | 480 kts | 317° |
| 2026-05-07 11:34 | 51.10677 | 1.00419 | 36102 ft | 480 kts | 315° |
| 2026-05-07 11:35 | 51.15420 | 0.92948 | 36102 ft | 480 kts | 314° |
| 2026-05-07 11:35 | 51.20169 | 0.85462 | 36094 ft | 480 kts | 315° |
| 2026-05-07 11:36 | 51.24937 | 0.77995 | 36092 ft | 481 kts | 315° |
| 2026-05-07 11:36 | 51.29716 | 0.70520 | 36090 ft | 481 kts | 315° |
| 2026-05-07 11:37 | 51.34494 | 0.63021 | 36082 ft | 481 kts | 315° |
| 2026-05-07 11:37 | 51.39267 | 0.55502 | 36082 ft | 482 kts | 315° |
| 2026-05-07 11:38 | 51.44005 | 0.48016 | 36083 ft | 482 kts | 315° |
| 2026-05-07 11:38 | 51.48771 | 0.40463 | 36085 ft | 482 kts | 315° |
| 2026-05-07 11:39 | 51.53526 | 0.32902 | 36087 ft | 481 kts | 315° |
| 2026-05-07 11:39 | 51.58263 | 0.25346 | 36092 ft | 481 kts | 315° |
| 2026-05-07 11:40 | 51.63012 | 0.17750 | 36096 ft | 482 kts | 315° |
| 2026-05-07 11:40 | 51.67751 | 0.10099 | 36094 ft | 484 kts | 314° |
| 2026-05-07 11:41 | 51.72460 | 0.02353 | 36074 ft | 483 kts | 314° |
| 2026-05-07 11:41 | 51.77147 | -0.05408 | 36078 ft | 483 kts | 314° |
| 2026-05-07 11:42 | 51.81839 | -0.13172 | 36087 ft | 483 kts | 314° |
| 2026-05-07 11:42 | 51.86530 | -0.20950 | 36080 ft | 483 kts | 314° |
| 2026-05-07 11:43 | 51.91216 | -0.28750 | 36074 ft | 483 kts | 314° |
| 2026-05-07 11:43 | 51.95900 | -0.36567 | 36076 ft | 483 kts | 314° |
| 2026-05-07 11:44 | 52.00574 | -0.44394 | 36071 ft | 484 kts | 313° |
| 2026-05-07 11:44 | 52.05251 | -0.52251 | 36070 ft | 485 kts | 314° |
| 2026-05-07 11:45 | 52.09176 | -0.58864 | 35940 ft | 488 kts | 314° |
| 2026-05-07 11:45 | 52.12357 | -0.64236 | 34754 ft | 487 kts | 314° |
| 2026-05-07 11:45 | 52.14664 | -0.68142 | 33929 ft | 473 kts | 314° |
| 2026-05-07 11:45 | 52.16951 | -0.72019 | 33085 ft | 476 kts | 314° |
| 2026-05-07 11:46 | 52.19247 | -0.75916 | 32182 ft | 479 kts | 314° |
| 2026-05-07 11:46 | 52.21561 | -0.79848 | 31250 ft | 481 kts | 314° |
| 2026-05-07 11:46 | 52.23970 | -0.83637 | 30429 ft | 481 kts | 320° |
| 2026-05-07 11:46 | 52.26563 | -0.87039 | 29792 ft | 475 kts | 324° |
| 2026-05-07 11:47 | 52.29312 | -0.89966 | 29146 ft | 470 kts | 329° |
| 2026-05-07 11:47 | 52.32102 | -0.92689 | 28513 ft | 465 kts | 330° |
| 2026-05-07 11:47 | 52.34875 | -0.95371 | 27916 ft | 460 kts | 330° |
| 2026-05-07 11:47 | 52.37609 | -0.98039 | 27313 ft | 456 kts | 329° |
| 2026-05-07 11:48 | 52.40314 | -1.00712 | 26713 ft | 452 kts | 329° |
| 2026-05-07 11:48 | 52.42981 | -1.03371 | 26118 ft | 447 kts | 329° |
| 2026-05-07 11:48 | 52.45617 | -1.06006 | 25530 ft | 443 kts | 329° |
| 2026-05-07 11:48 | 52.48238 | -1.08632 | 24949 ft | 440 kts | 329° |
| 2026-05-07 11:49 | 52.50835 | -1.11248 | 24368 ft | 436 kts | 328° |
| 2026-05-07 11:49 | 52.53401 | -1.13853 | 23791 ft | 432 kts | 328° |
| 2026-05-07 11:49 | 52.55126 | -1.15606 | 23407 ft | 430 kts | 328° |
| 2026-05-07 11:49 | 52.57664 | -1.18184 | 22833 ft | 427 kts | 328° |
| 2026-05-07 11:50 | 52.60178 | -1.20730 | 22268 ft | 423 kts | 328° |
| 2026-05-07 11:50 | 52.62681 | -1.23263 | 21689 ft | 420 kts | 328° |
| 2026-05-07 11:50 | 52.65157 | -1.25773 | 21135 ft | 417 kts | 328° |
| 2026-05-07 11:50 | 52.67617 | -1.28272 | 20590 ft | 413 kts | 328° |
| 2026-05-07 11:51 | 52.70051 | -1.30749 | 20036 ft | 410 kts | 327° |
| 2026-05-07 11:51 | 52.72466 | -1.33208 | 19540 ft | 406 kts | 327° |
| 2026-05-07 11:51 | 52.74875 | -1.35660 | 19050 ft | 408 kts | 327° |
| 2026-05-07 11:51 | 52.77292 | -1.38120 | 18585 ft | 408 kts | 327° |
| 2026-05-07 11:52 | 52.79709 | -1.40587 | 18095 ft | 407 kts | 327° |
| 2026-05-07 11:52 | 52.82114 | -1.43040 | 17611 ft | 405 kts | 327° |
| 2026-05-07 11:52 | 52.84506 | -1.45483 | 17129 ft | 403 kts | 327° |
| 2026-05-07 11:52 | 52.86878 | -1.47912 | 16647 ft | 401 kts | 327° |
| 2026-05-07 11:53 | 52.89241 | -1.50337 | 16160 ft | 398 kts | 327° |
| 2026-05-07 11:53 | 52.91588 | -1.52747 | 15693 ft | 395 kts | 327° |
| 2026-05-07 11:53 | 52.93914 | -1.55140 | 15227 ft | 392 kts | 327° |
| 2026-05-07 11:53 | 52.96224 | -1.57520 | 14754 ft | 389 kts | 327° |
| 2026-05-07 11:54 | 52.98515 | -1.59883 | 14300 ft | 386 kts | 327° |
| 2026-05-07 11:54 | 53.00822 | -1.62262 | 13811 ft | 384 kts | 327° |
| 2026-05-07 11:54 | 53.03049 | -1.64566 | 13382 ft | 381 kts | 327° |
| 2026-05-07 11:54 | 53.05268 | -1.66917 | 12914 ft | 372 kts | 323° |
| 2026-05-07 11:55 | 53.07097 | -1.69856 | 12491 ft | 363 kts | 308° |
| 2026-05-07 11:55 | 53.08639 | -1.73132 | 12062 ft | 357 kts | 308° |
| 2026-05-07 11:55 | 53.10213 | -1.76307 | 11652 ft | 353 kts | 309° |
| 2026-05-07 11:55 | 53.11794 | -1.79401 | 11221 ft | 349 kts | 309° |
| 2026-05-07 11:56 | 53.13364 | -1.82453 | 10801 ft | 346 kts | 309° |
| 2026-05-07 11:56 | 53.14924 | -1.85477 | 10387 ft | 342 kts | 309° |
| 2026-05-07 11:56 | 53.16465 | -1.88467 | 9975 ft | 338 kts | 309° |
| 2026-05-07 11:56 | 53.17941 | -1.91340 | 9745 ft | 311 kts | 309° |
| 2026-05-07 11:57 | 53.19294 | -1.93977 | 9400 ft | 287 kts | 309° |
| 2026-05-07 11:57 | 53.20566 | -1.96460 | 8962 ft | 275 kts | 309° |
| 2026-05-07 11:57 | 53.21771 | -1.98821 | 8609 ft | 260 kts | 309° |
| 2026-05-07 11:57 | 53.22940 | -2.01113 | 8391 ft | 255 kts | 309° |
| 2026-05-07 11:58 | 53.24096 | -2.03356 | 8018 ft | 252 kts | 311° |
| 2026-05-07 11:58 | 53.25529 | -2.05016 | 7589 ft | 257 kts | 340° |
| 2026-05-07 11:58 | 53.27301 | -2.05281 | 7277 ft | 259 kts | 9° |
| 2026-05-07 11:58 | 53.28929 | -2.04063 | 6983 ft | 256 kts | 40° |
| 2026-05-07 11:59 | 53.30108 | -2.01891 | 7031 ft | 258 kts | 51° |
| 2026-05-07 11:59 | 53.31253 | -1.99541 | 6727 ft | 258 kts | 51° |
| 2026-05-07 11:59 | 53.32360 | -1.97287 | 6540 ft | 246 kts | 46° |
| 2026-05-07 11:59 | 53.33756 | -1.95746 | 6317 ft | 238 kts | 18° |
| 2026-05-07 12:00 | 53.35334 | -1.95227 | 6080 ft | 228 kts | 357° |
| 2026-05-07 12:00 | 53.36894 | -1.95454 | 5881 ft | 220 kts | 351° |
| 2026-05-07 12:00 | 53.38355 | -1.95777 | 5673 ft | 206 kts | 350° |
| 2026-05-07 12:00 | 53.39784 | -1.96102 | 5441 ft | 204 kts | 350° |
| 2026-05-07 12:01 | 53.41180 | -1.96428 | 5221 ft | 201 kts | 350° |
| 2026-05-07 12:01 | 53.42552 | -1.96762 | 4979 ft | 195 kts | 350° |
| 2026-05-07 12:01 | 53.43879 | -1.97082 | 4786 ft | 194 kts | 350° |
| 2026-05-07 12:01 | 53.45222 | -1.97420 | 4595 ft | 201 kts | 350° |
| 2026-05-07 12:02 | 53.46595 | -1.97844 | 4366 ft | 200 kts | 339° |
| 2026-05-07 12:02 | 53.47649 | -1.99206 | 4142 ft | 188 kts | 297° |
| 2026-05-07 12:02 | 53.47892 | -2.01339 | 3930 ft | 189 kts | 256° |
| 2026-05-07 12:02 | 53.47265 | -2.03207 | 3697 ft | 184 kts | 224° |
| 2026-05-07 12:03 | 53.46386 | -2.04777 | 3419 ft | 185 kts | 227° |
| 2026-05-07 12:03 | 53.45578 | -2.06422 | 3146 ft | 179 kts | 229° |
| 2026-05-07 12:03 | 53.44827 | -2.07999 | 2932 ft | 168 kts | 228° |
| 2026-05-07 12:03 | 53.44116 | -2.09473 | 2722 ft | 159 kts | 229° |
| 2026-05-07 12:04 | 53.43411 | -2.10936 | 2480 ft | 159 kts | 229° |
| 2026-05-07 12:04 | 53.42753 | -2.12295 | 2322 ft | 144 kts | 229° |
| 2026-05-07 12:04 | 53.42137 | -2.13555 | 2135 ft | 140 kts | 229° |
| 2026-05-07 12:04 | 53.41510 | -2.14863 | 1956 ft | 147 kts | 229° |
| 2026-05-07 12:05 | 53.40869 | -2.16183 | 1733 ft | 144 kts | 230° |
| 2026-05-07 12:05 | 53.40247 | -2.17469 | 1542 ft | 141 kts | 230° |
| 2026-05-07 12:05 | 53.39623 | -2.18754 | 1373 ft | 143 kts | 230° |
| 2026-05-07 12:05 | 53.38992 | -2.20053 | 1177 ft | 143 kts | 229° |
| 2026-05-07 12:06 | 53.38367 | -2.21343 | 977 ft | 142 kts | 229° |
| 2026-05-07 12:06 | 53.37739 | -2.22616 | 805 ft | 142 kts | 229° |
| 2026-05-07 12:06 | 53.37110 | -2.23903 | 619 ft | 143 kts | 229° |
| 2026-05-07 12:06 | 53.36463 | -2.25245 | 422 ft | 146 kts | 230° |
| 2026-05-07 12:07 | 53.35870 | -2.26466 | 276 ft | 124 kts | 230° |
| 2026-05-07 12:07 | 53.35417 | -2.27402 | 249 ft | 77 kts | 231° |
| 2026-05-07 12:07 | 53.35157 | -2.27941 | 239 ft | 55 kts | 231° |
| 2026-05-07 12:07 | 53.34991 | -2.28331 | 240 ft | 36 kts | 246° |
| 2026-05-07 12:08 | 53.34947 | -2.28596 | 236 ft | 10 kts | 259° |
| 2026-05-07 12:08 | 53.34957 | -2.28714 | 236 ft | 11 kts | 305° |
| 2026-05-07 12:08 | 53.35013 | -2.28731 | 235 ft | 9 kts | 30° |
| 2026-05-07 12:08 | 53.35058 | -2.28658 | 234 ft | 9 kts | 47° |
| 2026-05-07 12:09 | 53.35101 | -2.28575 | 233 ft | 10 kts | 52° |
| 2026-05-07 12:09 | 53.35150 | -2.28468 | 236 ft | 13 kts | 52° |
| 2026-05-07 12:09 | 53.35205 | -2.28354 | 239 ft | 13 kts | 51° |
| 2026-05-07 12:09 | 53.35257 | -2.28256 | 237 ft | 11 kts | 38° |
| 2026-05-07 12:10 | 53.35311 | -2.28164 | 239 ft | 11 kts | 49° |
| 2026-05-07 12:10 | 53.35364 | -2.28068 | 241 ft | 11 kts | 44° |
| 2026-05-07 12:10 | 53.35420 | -2.27977 | 242 ft | 11 kts | 43° |
| 2026-05-07 12:10 | 53.35488 | -2.27919 | 244 ft | 11 kts | 11° |
| 2026-05-07 12:11 | 53.35578 | -2.27904 | 243 ft | 14 kts | 6° |
| 2026-05-07 12:11 | 53.35673 | -2.27886 | 248 ft | 14 kts | 6° |
| 2026-05-07 12:11 | 53.35770 | -2.27870 | 253 ft | 14 kts | 6° |
| 2026-05-07 12:11 | 53.35866 | -2.27854 | 258 ft | 14 kts | 6° |
| 2026-05-07 12:12 | 53.35961 | -2.27872 | 260 ft | 14 kts | 335° |
| 2026-05-07 12:12 | 53.36039 | -2.27971 | 260 ft | 14 kts | 319° |
| 2026-05-07 12:12 | 53.36113 | -2.28081 | 260 ft | 14 kts | 317° |
| 2026-05-07 12:12 | 53.36184 | -2.28198 | 260 ft | 14 kts | 314° |
| 2026-05-07 12:13 | 53.36254 | -2.28317 | 260 ft | 14 kts | 314° |
| 2026-05-07 12:13 | 53.36324 | -2.28435 | 260 ft | 14 kts | 317° |
| 2026-05-07 12:13 | 53.36416 | -2.28500 | 260 ft | 15 kts | 330° |
| 2026-05-07 12:13 | 53.36494 | -2.28611 | 260 ft | 15 kts | 314° |
| 2026-05-07 12:14 | 53.36566 | -2.28734 | 260 ft | 15 kts | 314° |
| 2026-05-07 12:14 | 53.36641 | -2.28751 | 260 ft | 12 kts | 36° |
| 2026-05-07 12:14 | 53.36704 | -2.28659 | 260 ft | 12 kts | 44° |
| 2026-05-07 12:14 | 53.36763 | -2.28563 | 260 ft | 11 kts | 45° |
| 2026-05-07 12:15 | 53.36786 | -2.28488 | 260 ft | 7 kts | 99° |
| 2026-05-07 12:15 | 53.36770 | -2.28435 | 260 ft | 3 kts | 123° |
| 2026-05-07 12:15 | 53.36754 | -2.28408 | 260 ft | 3 kts | 134° |
| 2026-05-07 12:15 | 53.36750 | -2.28399 | 260 ft | 0 kts | 134° |